Terminal Aerodrome Forecast
Issued by NWS

Home | Current Version | Previous Version | Text Only | Print | Product List | Glossary On
Versions: 1 2 3 4 5 6 7 8 9 10 11 12 13 14 15 16
000
FTUS46 KMTR 011100
TAFSNS
TAF
KSNS 011120Z 0112/0212 29004KT P6SM BKN005
     FM011700 29005KT P6SM SCT006
     FM011900 29012KT P6SM SKC
     FM020200 29009KT P6SM SCT008
     FM020400 29006KT P6SM OVC006=

USA.gov is the U.S. government's official web portal to all federal, state and local government web resources and services.